createdAt,value
2024-05-09T00:00:48.487Z,76.45
2024-05-09T00:03:37.224Z,76.48
2024-05-09T00:06:08.164Z,76.57
2024-05-09T00:08:36.686Z,76.37
2024-05-09T00:11:05.651Z,76.19
2024-05-09T00:13:34.363Z,76.33
2024-05-09T00:16:02.837Z,76.21
2024-05-09T00:18:33.270Z,76.09
2024-05-09T00:21:05.876Z,75.98
2024-05-09T00:23:34.336Z,75.83
2024-05-09T00:26:02.863Z,75.26
2024-05-09T00:28:31.225Z,75.57
2024-05-09T00:30:59.708Z,75.47
2024-05-09T00:33:28.547Z,75.03
2024-05-09T00:35:57.228Z,75.04
2024-05-09T00:38:26.114Z,75.12
2024-05-09T00:40:54.522Z,75.13
2024-05-09T00:43:23.010Z,74.93
2024-05-09T00:45:51.459Z,74.78
2024-05-09T00:48:21.532Z,74.61
2024-05-09T00:50:51.121Z,74.55
2024-05-09T00:53:20.714Z,74.45
2024-05-09T00:55:50.229Z,74.53
2024-05-09T00:58:22.760Z,74.50
2024-05-09T01:00:51.670Z,74.62
2024-05-09T01:03:20.773Z,74.23
2024-05-09T01:05:50.000Z,74.40
2024-05-09T01:08:19.578Z,74.27
2024-05-09T01:10:48.697Z,74.42
2024-05-09T01:13:17.330Z,74.33
2024-05-09T01:15:48.051Z,73.90
2024-05-09T01:18:17.067Z,74.28
2024-05-09T01:20:45.855Z,74.47
2024-05-09T01:23:16.186Z,74.56
2024-05-09T01:25:46.759Z,74.29
2024-05-09T01:28:16.475Z,74.39
2024-05-09T01:30:45.039Z,74.31
2024-05-09T01:33:13.872Z,74.38
2024-05-09T01:35:43.247Z,74.20
2024-05-09T01:38:17.494Z,74.39
2024-05-09T01:40:47.256Z,74.17
2024-05-09T01:43:16.308Z,74.14
2024-05-09T01:45:44.826Z,74.26
2024-05-09T01:48:13.371Z,74.14
2024-05-09T01:50:43.309Z,74.03
2024-05-09T01:53:15.158Z,74.17
2024-05-09T01:55:44.502Z,73.92
2024-05-09T01:58:13.370Z,74.04
2024-05-09T02:00:43.395Z,73.91
2024-05-09T02:03:16.406Z,74.26
2024-05-09T02:05:52.011Z,74.18
2024-05-09T02:08:22.154Z,74.40
2024-05-09T02:10:51.234Z,74.35
2024-05-09T02:13:19.768Z,74.38
2024-05-09T02:15:52.046Z,74.37
2024-05-09T02:18:20.848Z,74.41
2024-05-09T02:20:49.904Z,74.41
2024-05-09T02:23:19.968Z,74.35
2024-05-09T02:25:48.635Z,74.67
2024-05-09T02:28:17.106Z,74.62
2024-05-09T02:30:45.682Z,74.84
2024-05-09T02:33:14.831Z,75.06
2024-05-09T02:35:44.313Z,74.98
2024-05-09T02:38:13.722Z,75.21
2024-05-09T02:40:42.322Z,74.80
2024-05-09T02:43:12.981Z,75.20
2024-05-09T02:45:42.027Z,75.09
2024-05-09T02:48:12.428Z,75.16
2024-05-09T02:50:44.268Z,74.52
2024-05-09T02:53:14.472Z,74.68
2024-05-09T02:55:43.620Z,74.50
2024-05-09T02:58:12.254Z,74.49
2024-05-09T03:00:42.556Z,74.50
2024-05-09T03:03:14.422Z,74.71
2024-05-09T03:05:47.095Z,74.89
2024-05-09T03:08:15.700Z,74.74
2024-05-09T03:10:44.292Z,74.44
2024-05-09T03:13:15.916Z,74.54
2024-05-09T03:15:45.842Z,74.96
2024-05-09T03:18:15.444Z,74.74
2024-05-09T03:20:44.973Z,75.00
2024-05-09T03:23:13.716Z,74.80
2024-05-09T03:25:42.147Z,75.50
2024-05-09T03:28:11.569Z,75.37
2024-05-09T03:30:42.569Z,75.79
2024-05-09T03:33:20.174Z,76.38
2024-05-09T03:35:49.828Z,76.55
2024-05-09T03:38:18.520Z,77.12
2024-05-09T03:40:50.240Z,77.15
2024-05-09T03:43:19.930Z,77.86
2024-05-09T03:45:50.521Z,78.15
2024-05-09T03:48:19.996Z,78.70
2024-05-09T03:50:49.020Z,78.83
2024-05-09T03:53:17.828Z,78.55
2024-05-09T03:55:48.791Z,78.72
2024-05-09T03:58:19.006Z,79.01
2024-05-09T04:00:47.630Z,79.10
2024-05-09T04:03:16.644Z,79.38
2024-05-09T04:05:45.683Z,79.61
2024-05-09T04:08:15.416Z,79.32
2024-05-09T04:10:44.401Z,79.05
2024-05-09T04:13:13.111Z,79.12
2024-05-09T04:15:41.668Z,79.61
2024-05-09T04:18:10.467Z,79.40
2024-05-09T04:20:40.969Z,79.48
2024-05-09T04:23:14.708Z,79.92
2024-05-09T04:25:45.121Z,80.24
2024-05-09T04:28:14.704Z,80.45
2024-05-09T04:30:43.791Z,80.15
2024-05-09T04:33:14.974Z,80.44
2024-05-09T04:35:44.268Z,80.49
2024-05-09T04:38:14.570Z,79.91
2024-05-09T04:40:43.943Z,80.10
2024-05-09T04:43:17.359Z,80.05
2024-05-09T04:45:46.392Z,80.80
2024-05-09T04:48:16.379Z,80.45
2024-05-09T04:50:45.315Z,80.40
2024-05-09T04:53:17.741Z,80.86
2024-05-09T04:55:46.639Z,80.35
2024-05-09T04:58:15.252Z,80.11
2024-05-09T05:00:44.843Z,80.12
2024-05-09T05:03:15.645Z,80.23
2024-05-09T05:05:47.280Z,80.19
2024-05-09T05:08:17.980Z,79.69
2024-05-09T05:10:48.693Z,80.01
2024-05-09T05:13:22.655Z,79.99
2024-05-09T05:15:55.914Z,80.12
2024-05-09T05:18:28.872Z,79.84
2024-05-09T05:20:58.690Z,80.19
2024-05-09T05:23:27.745Z,79.90
2024-05-09T05:25:56.320Z,80.95
2024-05-09T05:28:24.922Z,81.30
2024-05-09T05:30:53.304Z,81.47
2024-05-09T05:33:24.716Z,81.50
2024-05-09T05:35:53.425Z,81.83
2024-05-09T05:38:24.822Z,82.65
2024-05-09T05:40:55.946Z,82.83
2024-05-09T05:43:24.805Z,82.91
2024-05-09T05:45:53.306Z,82.49
2024-05-09T05:48:22.539Z,82.56
2024-05-09T05:50:51.163Z,81.85
2024-05-09T05:53:19.777Z,81.48
2024-05-09T05:55:48.337Z,81.11
2024-05-09T05:58:16.821Z,80.71
2024-05-09T06:00:45.418Z,80.97
2024-05-09T06:03:14.907Z,81.09
2024-05-09T06:05:45.754Z,81.65
2024-05-09T06:08:14.903Z,81.12
2024-05-09T06:10:43.566Z,81.07
2024-05-09T06:13:13.591Z,81.36
2024-05-09T06:15:43.331Z,81.14
2024-05-09T06:18:13.883Z,80.73
2024-05-09T06:20:44.046Z,81.28
2024-05-09T06:23:14.737Z,80.65
2024-05-09T06:25:44.069Z,80.85
2024-05-09T06:28:12.920Z,80.31
2024-05-09T06:30:42.960Z,80.69
2024-05-09T06:33:14.368Z,81.19
2024-05-09T06:35:46.723Z,80.47
2024-05-09T06:38:15.351Z,80.34
2024-05-09T06:40:44.639Z,80.53
2024-05-09T06:43:19.275Z,80.45
2024-05-09T06:45:49.486Z,80.35
2024-05-09T06:48:22.284Z,80.67
2024-05-09T06:50:51.454Z,80.50
2024-05-09T06:53:23.826Z,80.57
2024-05-09T06:55:52.933Z,80.58
2024-05-09T06:58:21.548Z,81.08
2024-05-09T07:00:50.125Z,80.06
2024-05-09T07:03:19.655Z,79.98
2024-05-09T07:05:49.666Z,79.88
2024-05-09T07:08:19.290Z,79.76
2024-05-09T07:10:48.255Z,78.34
2024-05-09T07:13:16.885Z,78.05
2024-05-09T07:15:45.482Z,78.43
2024-05-09T07:18:17.128Z,78.29
2024-05-09T07:20:48.390Z,77.83
2024-05-09T07:23:18.770Z,77.54
2024-05-09T07:25:47.512Z,78.04
2024-05-09T07:28:18.446Z,77.55
2024-05-09T07:30:47.964Z,77.22
2024-05-09T07:33:22.417Z,76.99
2024-05-09T07:35:52.700Z,76.76
2024-05-09T07:38:21.758Z,76.74
2024-05-09T07:40:50.242Z,77.02
2024-05-09T07:43:18.893Z,76.74
2024-05-09T07:45:52.878Z,76.62
2024-05-09T07:53:40.406Z,76.25
2024-05-09T07:56:13.949Z,76.74
2024-05-09T07:58:44.162Z,76.40
2024-05-09T08:01:12.989Z,76.14
2024-05-09T08:03:41.746Z,75.75
2024-05-09T08:06:10.522Z,75.80
2024-05-09T08:08:39.112Z,75.79
2024-05-09T08:11:07.519Z,76.15
2024-05-09T08:13:35.915Z,76.29
2024-05-09T08:16:05.305Z,76.35
2024-05-09T08:18:33.865Z,75.80
2024-05-09T08:21:02.575Z,75.34
2024-05-09T08:23:31.417Z,75.48
2024-05-09T08:25:59.953Z,75.96
2024-05-09T08:28:29.318Z,75.99
2024-05-09T08:30:57.975Z,75.27
2024-05-09T08:33:26.556Z,74.87
2024-05-09T08:35:55.249Z,75.25
2024-05-09T08:38:24.145Z,74.73
2024-05-09T08:40:53.621Z,74.82
2024-05-09T08:43:24.671Z,75.21
2024-05-09T08:45:53.485Z,75.14
2024-05-09T08:48:24.186Z,74.73
2024-05-09T08:50:53.464Z,74.99
2024-05-09T08:53:22.032Z,73.40
2024-05-09T08:55:51.788Z,74.52
2024-05-09T08:58:21.471Z,74.24
2024-05-09T09:00:50.292Z,73.59
2024-05-09T09:03:22.147Z,73.28
2024-05-09T09:06:10.506Z,73.34
2024-05-09T09:08:39.898Z,72.93
2024-05-09T09:11:08.532Z,73.09
2024-05-09T09:13:38.335Z,73.87
2024-05-09T09:16:07.215Z,73.59
2024-05-09T09:18:35.759Z,72.96
2024-05-09T09:21:04.939Z,73.95
2024-05-09T09:23:33.534Z,73.89
2024-05-09T09:26:02.356Z,73.29
2024-05-09T09:28:31.071Z,72.55
2024-05-09T09:31:03.379Z,72.76
2024-05-09T09:33:32.413Z,73.50
2024-05-09T09:36:07.561Z,71.92
2024-05-09T09:38:37.637Z,72.96
2024-05-09T09:41:13.000Z,72.42
2024-05-09T09:43:42.685Z,72.86
2024-05-09T09:46:12.947Z,71.74
2024-05-09T09:48:44.008Z,72.07
2024-05-09T09:51:15.135Z,71.25
2024-05-09T09:53:44.483Z,71.39
2024-05-09T09:56:15.067Z,70.77
2024-05-09T09:58:45.448Z,71.38
2024-05-09T10:01:14.200Z,71.58
2024-05-09T10:03:45.434Z,71.13
2024-05-09T10:06:15.576Z,71.57
2024-05-09T10:08:46.884Z,71.35
2024-05-09T10:11:22.445Z,71.45
2024-05-09T10:13:51.858Z,71.33
2024-05-09T10:16:23.853Z,71.29
2024-05-09T10:18:52.692Z,70.42
2024-05-09T10:21:22.096Z,70.35
2024-05-09T10:23:58.305Z,71.20
2024-05-09T10:26:32.872Z,68.93
2024-05-09T10:29:11.295Z,69.19
2024-05-09T10:31:43.730Z,68.07
2024-05-09T10:34:32.904Z,68.58
2024-05-09T10:37:04.693Z,68.28
2024-05-09T10:39:39.117Z,68.75
2024-05-09T10:42:10.239Z,68.52
2024-05-09T10:44:38.825Z,68.29
2024-05-09T10:47:07.384Z,67.43
2024-05-09T10:49:38.752Z,67.28
2024-05-09T10:52:08.854Z,67.45
2024-05-09T10:54:38.951Z,68.48
2024-05-09T10:57:07.466Z,68.63
2024-05-09T10:59:39.378Z,67.96
2024-05-09T11:02:08.281Z,67.92
2024-05-09T11:04:40.273Z,67.86
2024-05-09T11:07:10.429Z,68.20
2024-05-09T11:09:41.001Z,67.30
2024-05-09T11:12:09.909Z,67.03
2024-05-09T11:14:38.553Z,66.23
2024-05-09T11:17:08.496Z,66.19
2024-05-09T11:19:39.904Z,67.27
2024-05-09T11:22:08.930Z,67.30
2024-05-09T11:24:37.630Z,67.90
2024-05-09T11:27:06.736Z,67.19
2024-05-09T11:29:40.191Z,66.64
2024-05-09T11:32:11.328Z,66.66
2024-05-09T11:34:42.009Z,65.78
2024-05-09T11:37:11.239Z,65.25
2024-05-09T11:39:39.777Z,65.31
2024-05-09T11:42:08.266Z,64.97
2024-05-09T11:44:37.008Z,64.72
2024-05-09T11:47:05.629Z,64.33
2024-05-09T11:49:34.070Z,63.80
2024-05-09T11:52:02.847Z,63.84
2024-05-09T11:54:31.423Z,63.53
2024-05-09T11:57:00.021Z,63.99
2024-05-09T11:59:28.756Z,63.51
2024-05-09T12:01:57.441Z,61.08
2024-05-09T12:04:25.880Z,58.64
2024-05-09T12:06:54.473Z,56.99
2024-05-09T12:09:23.034Z,55.36
2024-05-09T12:11:51.538Z,55.99
2024-05-09T12:14:19.888Z,54.18
2024-05-09T12:16:49.086Z,52.48
2024-05-09T12:19:17.847Z,52.63
2024-05-09T12:21:46.293Z,52.57
2024-05-09T12:24:17.713Z,51.52
2024-05-09T12:26:47.420Z,53.33
2024-05-09T12:29:15.900Z,52.82
2024-05-09T12:31:44.221Z,52.28
2024-05-09T12:34:13.508Z,51.45
2024-05-09T12:36:43.220Z,49.91
2024-05-09T12:39:11.711Z,48.54
2024-05-09T12:41:40.239Z,49.09
2024-05-09T12:44:08.730Z,48.63
2024-05-09T12:46:37.702Z,48.76
2024-05-09T12:49:06.867Z,48.33
2024-05-09T12:51:35.947Z,48.91
2024-05-09T12:54:04.521Z,49.22
2024-05-09T12:56:33.613Z,49.44
2024-05-09T12:59:02.316Z,49.61
2024-05-09T13:01:30.703Z,49.10
2024-05-09T13:03:59.552Z,49.89
2024-05-09T13:06:28.129Z,49.08
2024-05-09T13:08:57.368Z,48.37
2024-05-09T13:11:25.714Z,49.51
2024-05-09T13:13:54.115Z,49.46
2024-05-09T13:16:22.907Z,49.77
2024-05-09T13:18:51.676Z,50.22
2024-05-09T13:21:20.277Z,49.45
2024-05-09T13:23:48.765Z,49.45
2024-05-09T13:26:17.286Z,50.22
2024-05-09T13:28:45.975Z,49.30
2024-05-09T13:31:14.240Z,48.64
2024-05-09T13:33:42.963Z,48.43
2024-05-09T13:36:11.665Z,48.26
2024-05-09T13:38:40.248Z,47.83
2024-05-09T13:41:08.583Z,48.30
2024-05-09T13:43:37.095Z,48.53
2024-05-09T13:46:05.615Z,49.82
2024-05-09T13:48:34.655Z,50.26
2024-05-09T13:51:03.261Z,50.97
2024-05-09T13:53:31.638Z,50.66
2024-05-09T13:56:00.420Z,52.00
2024-05-09T13:58:28.859Z,52.75
2024-05-09T14:00:58.314Z,52.38
2024-05-09T14:03:29.777Z,51.47
2024-05-09T14:05:59.847Z,51.35
2024-05-09T14:08:29.430Z,51.96
2024-05-09T14:10:57.842Z,52.32
2024-05-09T14:13:26.315Z,51.78
2024-05-09T14:15:55.279Z,51.60
2024-05-09T14:18:24.076Z,52.23
2024-05-09T14:20:52.620Z,52.73
2024-05-09T14:23:21.246Z,52.63
2024-05-09T14:25:52.792Z,52.57
2024-05-09T14:28:22.736Z,52.30
2024-05-09T14:30:51.596Z,52.78
2024-05-09T14:33:25.576Z,53.27
2024-05-09T14:35:54.717Z,53.80
2024-05-09T14:38:24.554Z,53.37
2024-05-09T14:40:53.535Z,53.42
2024-05-09T14:43:22.068Z,54.29
2024-05-09T14:45:50.568Z,54.49
2024-05-09T14:48:20.103Z,54.90
2024-05-09T14:50:49.008Z,55.01
2024-05-09T14:53:17.540Z,55.48
2024-05-09T14:55:47.170Z,55.85
2024-05-09T14:58:16.142Z,56.26
2024-05-09T15:00:50.099Z,55.94
2024-05-09T15:03:22.247Z,56.59
2024-05-09T15:05:52.406Z,56.85
2024-05-09T15:08:21.229Z,56.76
2024-05-09T15:10:50.663Z,56.29
2024-05-09T15:13:20.994Z,56.82
2024-05-09T15:15:50.085Z,57.43
2024-05-09T15:18:19.040Z,56.92
2024-05-09T15:20:48.542Z,57.39
2024-05-09T15:23:17.572Z,57.38
2024-05-09T15:25:46.213Z,57.45
2024-05-09T15:28:14.869Z,57.33
2024-05-09T15:30:46.327Z,58.05
2024-05-09T15:33:15.626Z,58.14
2024-05-09T15:35:46.603Z,58.29
2024-05-09T15:38:16.190Z,58.47
2024-05-09T15:40:44.820Z,58.44
2024-05-09T15:43:13.663Z,57.52
2024-05-09T15:45:42.352Z,57.42
2024-05-09T15:48:11.619Z,56.77
2024-05-09T15:50:42.087Z,56.15
2024-05-09T15:53:13.324Z,56.40
2024-05-09T15:55:43.354Z,56.18
2024-05-09T15:58:13.106Z,56.18
2024-05-09T16:00:44.786Z,55.78
2024-05-09T16:03:15.627Z,56.16
2024-05-09T16:05:48.224Z,56.42
2024-05-09T16:08:17.858Z,56.21
2024-05-09T16:10:47.495Z,56.56
2024-05-09T16:13:17.360Z,56.05
2024-05-09T16:15:46.722Z,55.28
2024-05-09T16:18:15.839Z,55.77
2024-05-09T16:20:46.310Z,55.88
2024-05-09T16:23:17.168Z,56.06
2024-05-09T16:25:48.059Z,55.90
2024-05-09T16:28:19.191Z,56.11
2024-05-09T16:30:47.800Z,56.37
2024-05-09T16:33:20.729Z,56.26
2024-05-09T16:35:50.225Z,55.73
2024-05-09T16:38:19.745Z,56.36
2024-05-09T16:40:48.249Z,56.16
2024-05-09T16:43:16.899Z,55.32
2024-05-09T16:45:45.605Z,55.27
2024-05-09T16:48:14.744Z,55.34
2024-05-09T16:50:43.526Z,54.93
2024-05-09T16:53:13.655Z,54.22
2024-05-09T16:55:42.293Z,54.01
2024-05-09T16:58:12.419Z,54.12
2024-05-09T17:00:43.352Z,53.90
2024-05-09T17:03:15.586Z,53.56
2024-05-09T17:05:46.902Z,53.75
2024-05-09T17:08:20.414Z,53.89
2024-05-09T17:10:49.859Z,54.12
2024-05-09T17:13:19.359Z,54.49
2024-05-09T17:15:52.436Z,54.69
2024-05-09T17:18:21.747Z,55.21
2024-05-09T17:20:51.527Z,55.65
2024-05-09T17:23:20.082Z,56.13
2024-05-09T17:25:48.459Z,56.45
2024-05-09T17:28:16.986Z,56.80
2024-05-09T17:30:45.539Z,57.36
2024-05-09T17:33:14.123Z,57.75
2024-05-09T17:35:42.738Z,58.32
2024-05-09T17:38:11.534Z,59.03
2024-05-09T17:40:40.346Z,59.46
2024-05-09T17:43:10.481Z,60.33
2024-05-09T17:45:41.190Z,61.03
2024-05-09T17:48:11.950Z,61.56
2024-05-09T17:50:42.010Z,62.16
2024-05-09T17:53:11.137Z,62.41
2024-05-09T17:55:40.702Z,63.17
2024-05-09T17:58:09.969Z,63.32
2024-05-09T18:00:41.551Z,64.04
2024-05-09T18:03:12.671Z,64.87
2024-05-09T18:05:44.525Z,65.43
2024-05-09T18:08:14.208Z,66.29
2024-05-09T18:10:42.944Z,66.86
2024-05-09T18:13:13.457Z,67.12
2024-05-09T18:15:42.334Z,67.43
2024-05-09T18:18:12.776Z,68.05
2024-05-09T18:20:45.028Z,68.47
2024-05-09T18:23:17.763Z,68.90
2024-05-09T18:25:48.090Z,69.19
2024-05-09T18:28:17.565Z,69.56
2024-05-09T18:30:46.719Z,69.92
2024-05-09T18:33:16.353Z,70.01
2024-05-09T18:35:45.410Z,70.56
2024-05-09T18:38:14.283Z,71.05
2024-05-09T18:40:44.923Z,71.41
2024-05-09T18:43:16.674Z,71.40
2024-05-09T18:45:46.107Z,71.61
2024-05-09T18:48:15.230Z,71.67
2024-05-09T18:50:45.539Z,72.08
2024-05-09T18:53:14.264Z,72.05
2024-05-09T18:55:42.720Z,72.46
2024-05-09T18:58:11.884Z,72.72
2024-05-09T19:00:42.898Z,72.60
2024-05-09T19:03:15.042Z,72.63
2024-05-09T19:05:46.013Z,72.97
2024-05-09T19:08:15.763Z,73.15
2024-05-09T19:10:47.828Z,73.70
2024-05-09T19:13:16.707Z,73.42
2024-05-09T19:15:45.403Z,74.12
2024-05-09T19:18:14.597Z,74.06
2024-05-09T19:20:44.300Z,73.80
2024-05-09T19:23:13.259Z,74.01
2024-05-09T19:25:41.693Z,74.30
2024-05-09T19:28:10.235Z,74.24
2024-05-09T19:30:41.917Z,74.46
2024-05-09T19:33:13.312Z,74.54
2024-05-09T19:35:43.868Z,74.55
2024-05-09T19:38:13.375Z,74.58
2024-05-09T19:40:42.278Z,74.47
2024-05-09T19:43:11.237Z,74.36
2024-05-09T19:45:40.205Z,74.41
2024-05-09T19:48:09.069Z,74.81
2024-05-09T19:50:43.086Z,74.83
2024-05-09T19:53:14.390Z,74.81
2024-05-09T19:55:43.559Z,74.79
2024-05-09T19:58:12.874Z,74.89
2024-05-09T20:00:43.736Z,74.98
2024-05-09T20:03:14.979Z,75.21
2024-05-09T20:05:46.712Z,75.37
2024-05-09T20:08:16.465Z,75.23
2024-05-09T20:10:45.605Z,75.20
2024-05-09T20:13:14.748Z,75.06
2024-05-09T20:15:43.510Z,75.18
2024-05-09T20:18:12.369Z,75.39
2024-05-09T20:20:43.790Z,75.44
2024-05-09T20:23:14.486Z,74.98
2024-05-09T20:25:43.645Z,75.57
2024-05-09T20:28:12.386Z,75.57
2024-05-09T20:30:41.342Z,75.88
2024-05-09T20:33:10.696Z,75.74
2024-05-09T20:35:39.913Z,75.63
2024-05-09T20:38:08.637Z,75.93
2024-05-09T20:40:39.206Z,75.97
2024-05-09T20:43:12.052Z,76.00
2024-05-09T20:45:41.034Z,76.19
2024-05-09T20:48:10.273Z,75.92
2024-05-09T20:50:41.877Z,76.12
2024-05-09T20:53:13.945Z,76.51
2024-05-09T20:55:44.735Z,76.43
2024-05-09T20:58:14.369Z,76.45
2024-05-09T21:00:45.748Z,75.95
2024-05-09T21:03:17.018Z,76.21
2024-05-09T21:05:47.963Z,76.82
2024-05-09T21:08:17.252Z,76.85
2024-05-09T21:10:46.061Z,76.71
2024-05-09T21:13:15.004Z,77.04
2024-05-09T21:15:43.822Z,76.61
2024-05-09T21:18:12.535Z,76.94
2024-05-09T21:20:41.541Z,77.16
2024-05-09T21:23:10.012Z,76.95
2024-05-09T21:25:38.398Z,76.81
2024-05-09T21:28:07.190Z,76.98
2024-05-09T21:30:41.600Z,76.81
2024-05-09T21:33:13.577Z,77.09
2024-05-09T21:35:44.735Z,77.04
2024-05-09T21:38:15.076Z,76.96
2024-05-09T21:40:44.440Z,77.13
2024-05-09T21:43:14.348Z,77.16
2024-05-09T21:45:43.465Z,77.03
2024-05-09T21:48:13.473Z,76.98
2024-05-09T21:50:42.691Z,76.91
2024-05-09T21:53:12.625Z,77.32
2024-05-09T21:55:42.893Z,77.49
2024-05-09T21:58:13.754Z,77.27
2024-05-09T22:00:45.652Z,76.99
2024-05-09T22:03:15.059Z,77.17
2024-05-09T22:05:45.272Z,77.16
2024-05-09T22:08:13.946Z,77.61
2024-05-09T22:10:42.861Z,77.20
2024-05-09T22:13:11.686Z,77.39
2024-05-09T22:15:40.842Z,77.83
2024-05-09T22:18:11.320Z,77.93
2024-05-09T22:20:45.592Z,77.96
2024-05-09T22:23:15.977Z,77.72
2024-05-09T22:25:44.546Z,77.71
2024-05-09T22:28:15.725Z,77.68
2024-05-09T22:30:46.210Z,77.79
2024-05-09T22:33:15.854Z,77.65
2024-05-09T22:35:45.204Z,77.76
2024-05-09T22:38:13.828Z,77.82
2024-05-09T22:40:47.848Z,78.14
2024-05-09T22:43:20.813Z,78.24
2024-05-09T22:45:51.282Z,78.21
2024-05-09T22:48:20.236Z,78.59
2024-05-09T22:50:49.016Z,78.49
2024-05-09T22:53:18.070Z,78.23
2024-05-09T22:55:46.638Z,78.24
2024-05-09T22:58:15.281Z,78.29
2024-05-09T23:00:43.854Z,77.94
2024-05-09T23:03:14.128Z,77.98
2024-05-09T23:05:43.808Z,77.97
2024-05-09T23:08:12.297Z,78.19
2024-05-09T23:10:40.711Z,77.98
2024-05-09T23:13:09.349Z,78.41
2024-05-09T23:15:40.856Z,78.35
2024-05-09T23:18:09.560Z,78.30
2024-05-09T23:20:39.872Z,78.40
2024-05-09T23:23:10.608Z,78.54
2024-05-09T23:25:43.983Z,78.48
2024-05-09T23:28:14.031Z,78.49
2024-05-09T23:30:42.784Z,78.09
2024-05-09T23:33:13.150Z,78.25
2024-05-09T23:35:46.095Z,78.26
2024-05-09T23:38:14.304Z,78.45
2024-05-09T23:40:43.357Z,78.52
2024-05-09T23:43:14.214Z,78.64
2024-05-09T23:45:43.242Z,78.51
2024-05-09T23:48:12.265Z,78.81
2024-05-09T23:50:41.396Z,79.02
2024-05-09T23:53:11.077Z,79.06
2024-05-09T23:55:40.508Z,78.93
2024-05-09T23:58:11.260Z,79.02
